createdAt,value
2022-07-27T00:01:28.191Z,69.99
2022-07-27T00:03:45.531Z,70.31
2022-07-27T00:06:02.856Z,69.11
2022-07-27T00:08:20.006Z,71.47
2022-07-27T00:10:36.913Z,70.49
2022-07-27T00:12:54.024Z,69.45
2022-07-27T00:15:11.331Z,69.59
2022-07-27T00:17:28.289Z,69.87
2022-07-27T00:19:45.401Z,70.65
2022-07-27T00:22:04.612Z,70.26
2022-07-27T00:24:21.771Z,71.16
2022-07-27T00:26:38.850Z,68.85
2022-07-27T00:28:55.825Z,70.59
2022-07-27T00:31:12.941Z,70.28
2022-07-27T00:33:30.099Z,69.51
2022-07-27T00:35:48.345Z,70.25
2022-07-27T00:38:05.682Z,69.39
2022-07-27T00:40:23.051Z,70.30
2022-07-27T00:42:39.998Z,69.56
2022-07-27T00:44:57.188Z,69.73
2022-07-27T00:47:14.552Z,68.70
2022-07-27T00:49:31.623Z,69.92
2022-07-27T00:51:48.691Z,69.08
2022-07-27T00:54:06.022Z,67.58
2022-07-27T00:56:23.358Z,67.90
2022-07-27T00:58:40.713Z,67.90
2022-07-27T01:00:57.630Z,68.09
2022-07-27T01:03:16.419Z,69.35
2022-07-27T01:05:36.599Z,68.68
2022-07-27T01:07:54.925Z,69.54
2022-07-27T01:10:14.670Z,68.70
2022-07-27T01:12:31.694Z,70.65
2022-07-27T01:14:49.336Z,69.86
2022-07-27T01:17:07.518Z,68.75
2022-07-27T01:19:24.589Z,70.30
2022-07-27T01:21:41.680Z,70.44
2022-07-27T01:23:58.755Z,68.79
2022-07-27T01:26:16.078Z,68.46
2022-07-27T01:28:33.164Z,69.48
2022-07-27T01:30:50.263Z,68.65
2022-07-27T01:33:07.656Z,68.74
2022-07-27T01:35:24.746Z,68.87
2022-07-27T01:37:42.013Z,68.19
2022-07-27T01:40:05.425Z,69.04
2022-07-27T01:42:23.685Z,67.97
2022-07-27T01:44:41.750Z,68.30
2022-07-27T01:46:59.112Z,67.39
2022-07-27T01:49:16.756Z,68.31
2022-07-27T01:51:34.211Z,68.51
2022-07-27T01:53:51.205Z,67.51
2022-07-27T01:56:08.276Z,67.25
2022-07-27T01:58:26.056Z,68.65
2022-07-27T02:00:43.377Z,68.65
2022-07-27T02:03:01.763Z,67.64
2022-07-27T02:05:18.946Z,66.81
2022-07-27T02:07:36.304Z,67.77
2022-07-27T02:09:54.752Z,67.63
2022-07-27T02:12:12.032Z,67.77
2022-07-27T02:14:29.502Z,67.49
2022-07-27T02:16:46.562Z,68.52
2022-07-27T02:19:04.944Z,68.16
2022-07-27T02:21:22.519Z,68.10
2022-07-27T02:23:40.792Z,68.06
2022-07-27T02:25:59.120Z,69.59
2022-07-27T02:28:16.454Z,69.14
2022-07-27T02:30:34.689Z,68.44
2022-07-27T02:32:51.975Z,67.79
2022-07-27T02:35:18.920Z,69.62
2022-07-27T02:37:37.530Z,70.00
2022-07-27T02:39:55.849Z,68.00
2022-07-27T02:42:12.908Z,68.31
2022-07-27T02:44:30.794Z,68.12
2022-07-27T02:46:49.391Z,68.30
2022-07-27T02:49:06.739Z,68.09
2022-07-27T02:51:23.926Z,68.16
2022-07-27T02:53:41.064Z,68.23
2022-07-27T02:55:58.131Z,69.17
2022-07-27T02:58:15.221Z,67.76
2022-07-27T03:00:32.566Z,67.92
2022-07-27T03:02:50.606Z,69.82
2022-07-27T03:05:08.862Z,69.25
2022-07-27T03:07:25.822Z,69.11
2022-07-27T03:09:45.385Z,69.49
2022-07-27T03:12:05.280Z,70.68
2022-07-27T03:14:22.521Z,69.85
2022-07-27T03:16:39.861Z,68.56
2022-07-27T03:18:56.959Z,68.67
2022-07-27T03:21:14.298Z,69.83
2022-07-27T03:23:31.297Z,70.40
2022-07-27T03:25:48.677Z,68.76
2022-07-27T03:28:06.647Z,69.71
2022-07-27T03:30:23.763Z,67.80
2022-07-27T03:32:40.848Z,68.79
2022-07-27T03:34:57.887Z,69.32
2022-07-27T03:37:15.182Z,70.15
2022-07-27T03:39:32.284Z,68.17
2022-07-27T03:41:49.341Z,69.57
2022-07-27T03:44:06.268Z,69.85
2022-07-27T03:46:23.450Z,69.45
2022-07-27T03:48:40.823Z,68.42
2022-07-27T03:50:58.202Z,70.45
2022-07-27T03:53:15.320Z,70.68
2022-07-27T03:55:32.328Z,69.04
2022-07-27T03:57:49.290Z,70.44
2022-07-27T04:00:06.285Z,70.13
2022-07-27T04:02:23.340Z,69.15
2022-07-27T04:04:40.704Z,70.14
2022-07-27T04:06:58.081Z,68.81
2022-07-27T04:09:15.500Z,70.27
2022-07-27T04:11:32.858Z,70.90
2022-07-27T04:13:50.434Z,71.11
2022-07-27T04:16:07.515Z,70.50
2022-07-27T04:18:24.812Z,67.97
2022-07-27T04:20:41.741Z,67.98
2022-07-27T04:22:58.743Z,70.17
2022-07-27T04:25:17.088Z,69.63
2022-07-27T04:27:34.018Z,70.06
2022-07-27T04:29:51.545Z,70.01
2022-07-27T04:32:08.517Z,70.40
2022-07-27T04:34:26.840Z,69.03
2022-07-27T04:36:43.896Z,68.29
2022-07-27T04:39:01.285Z,69.78
2022-07-27T04:41:18.409Z,68.52
2022-07-27T04:43:35.763Z,69.49
2022-07-27T04:45:53.128Z,69.87
2022-07-27T04:48:11.380Z,69.63
2022-07-27T04:50:28.733Z,68.76
2022-07-27T04:52:45.839Z,68.27
2022-07-27T04:55:02.838Z,68.54
2022-07-27T04:57:20.210Z,69.33
2022-07-27T04:59:37.507Z,68.78
2022-07-27T05:01:54.514Z,66.60
2022-07-27T05:04:11.640Z,67.17
2022-07-27T05:06:29.581Z,69.21
2022-07-27T05:08:46.632Z,67.44
2022-07-27T05:11:03.648Z,67.71
2022-07-27T05:13:20.933Z,67.62
2022-07-27T05:15:53.970Z,67.73
2022-07-27T05:18:13.667Z,66.62
2022-07-27T05:20:30.686Z,66.59
2022-07-27T05:22:48.015Z,66.27
2022-07-27T05:25:05.050Z,67.55
2022-07-27T05:27:22.343Z,67.67
2022-07-27T05:29:40.619Z,67.44
2022-07-27T05:31:57.738Z,66.80
2022-07-27T05:34:16.011Z,65.48
2022-07-27T05:36:33.077Z,64.62
2022-07-27T05:38:50.117Z,66.90
2022-07-27T05:41:07.408Z,65.92
2022-07-27T05:43:24.689Z,65.71
2022-07-27T05:45:42.611Z,63.89
2022-07-27T05:47:59.884Z,64.32
2022-07-27T05:50:17.204Z,64.66
2022-07-27T05:52:34.500Z,65.05
2022-07-27T05:54:51.476Z,65.85
2022-07-27T05:57:08.773Z,63.91
2022-07-27T05:59:26.822Z,65.35
2022-07-27T06:01:43.869Z,62.82
2022-07-27T06:04:02.157Z,62.01
2022-07-27T06:06:19.520Z,63.29
2022-07-27T06:08:36.570Z,62.05
2022-07-27T06:10:53.972Z,61.07
2022-07-27T06:13:11.221Z,60.50
2022-07-27T06:15:28.277Z,60.77
2022-07-27T06:17:46.357Z,59.66
2022-07-27T06:20:03.398Z,59.56
2022-07-27T06:22:20.472Z,59.75
2022-07-27T06:24:37.565Z,59.26
2022-07-27T06:26:55.807Z,58.54
2022-07-27T06:29:13.186Z,58.66
2022-07-27T06:31:35.633Z,58.43
2022-07-27T06:33:52.929Z,57.84
2022-07-27T06:36:10.309Z,58.62
2022-07-27T06:38:28.616Z,58.49
2022-07-27T06:40:45.934Z,57.67
2022-07-27T06:43:03.475Z,57.84
2022-07-27T06:45:20.588Z,57.80
2022-07-27T06:47:49.701Z,57.69
2022-07-27T06:50:07.219Z,57.34
2022-07-27T06:52:24.486Z,57.00
2022-07-27T06:54:41.409Z,56.63
2022-07-27T06:56:58.795Z,57.40
2022-07-27T06:59:16.011Z,56.86
2022-07-27T07:01:33.178Z,55.42
2022-07-27T07:03:50.310Z,56.21
2022-07-27T07:06:07.327Z,56.12
2022-07-27T07:08:24.353Z,55.14
2022-07-27T07:10:41.626Z,56.52
2022-07-27T07:12:58.656Z,55.48
2022-07-27T07:15:15.959Z,54.53
2022-07-27T07:17:33.230Z,54.97
2022-07-27T07:19:50.285Z,54.37
2022-07-27T07:22:08.311Z,54.84
2022-07-27T07:24:25.271Z,52.87
2022-07-27T07:26:44.135Z,53.42
2022-07-27T07:29:03.273Z,54.20
2022-07-27T07:31:20.302Z,54.89
2022-07-27T07:33:37.372Z,53.73
2022-07-27T07:36:12.798Z,52.11
2022-07-27T07:38:31.364Z,53.61
2022-07-27T07:40:50.415Z,53.97
2022-07-27T07:43:07.748Z,53.37
2022-07-27T07:45:24.802Z,52.05
2022-07-27T07:47:41.734Z,53.28
2022-07-27T07:49:59.048Z,51.58
2022-07-27T07:52:15.909Z,51.22
2022-07-27T07:54:33.229Z,51.34
2022-07-27T07:56:50.508Z,50.68
2022-07-27T07:59:07.472Z,51.05
2022-07-27T08:01:24.681Z,51.18
2022-07-27T08:03:46.151Z,51.45
2022-07-27T08:06:05.790Z,52.17
2022-07-27T08:08:24.290Z,51.95
2022-07-27T08:10:41.890Z,53.11
2022-07-27T08:12:58.959Z,53.46
2022-07-27T08:15:16.015Z,50.53
2022-07-27T08:17:33.059Z,50.67
2022-07-27T08:19:51.308Z,51.78
2022-07-27T08:22:08.572Z,49.98
2022-07-27T08:24:26.344Z,51.18
2022-07-27T08:26:44.594Z,51.81
2022-07-27T08:29:11.334Z,49.82
2022-07-27T08:31:52.289Z,50.80
2022-07-27T08:34:07.587Z,50.58
2022-07-27T08:36:24.705Z,51.76
2022-07-27T08:38:42.736Z,49.40
2022-07-27T08:40:59.760Z,48.35
2022-07-27T08:43:23.674Z,47.95
2022-07-27T08:45:42.385Z,46.88
2022-07-27T08:47:59.477Z,46.60
2022-07-27T08:50:16.780Z,47.85
2022-07-27T08:52:33.855Z,47.97
2022-07-27T08:54:51.076Z,46.74
2022-07-27T08:57:09.467Z,48.21
2022-07-27T08:59:26.753Z,48.62
2022-07-27T09:01:44.138Z,47.59
2022-07-27T09:04:01.610Z,47.47
2022-07-27T09:06:18.682Z,45.91
2022-07-27T09:08:35.616Z,47.05
2022-07-27T09:10:53.010Z,47.12
2022-07-27T09:13:12.504Z,46.47
2022-07-27T09:15:34.473Z,45.35
2022-07-27T09:17:52.136Z,45.16
2022-07-27T09:20:13.108Z,45.01
2022-07-27T09:22:32.994Z,45.28
2022-07-27T09:24:50.357Z,45.96
2022-07-27T09:27:07.593Z,47.14
2022-07-27T09:29:24.923Z,45.80
2022-07-27T09:31:42.281Z,44.57
2022-07-27T09:33:59.467Z,42.92
2022-07-27T09:36:16.691Z,42.88
2022-07-27T09:38:34.216Z,42.97
2022-07-27T09:40:51.227Z,42.29
2022-07-27T09:43:52.306Z,42.68
2022-07-27T09:45:51.608Z,43.44
2022-07-27T09:48:13.884Z,41.52
2022-07-27T09:50:35.651Z,42.90
2022-07-27T09:52:53.294Z,43.53
2022-07-27T09:55:11.431Z,43.26
2022-07-27T09:57:29.558Z,43.93
2022-07-27T09:59:46.716Z,42.05
2022-07-27T10:02:04.124Z,42.73
2022-07-27T10:04:21.264Z,42.80
2022-07-27T10:07:01.253Z,42.29
2022-07-27T10:09:18.170Z,42.44
2022-07-27T10:11:35.297Z,40.41
2022-07-27T10:13:52.293Z,40.88
2022-07-27T10:16:10.371Z,41.08
2022-07-27T10:18:27.493Z,41.34
2022-07-27T10:20:47.596Z,42.18
2022-07-27T10:23:07.379Z,42.85
2022-07-27T10:25:24.652Z,42.83
2022-07-27T10:27:42.819Z,43.76
2022-07-27T10:29:59.823Z,42.17
2022-07-27T10:32:16.872Z,42.11
2022-07-27T10:34:34.159Z,42.85
2022-07-27T10:36:51.446Z,42.16
2022-07-27T10:39:09.911Z,42.77
2022-07-27T10:41:27.347Z,42.26
2022-07-27T10:43:44.481Z,42.06
2022-07-27T10:46:04.170Z,42.10
2022-07-27T10:48:21.535Z,39.84
2022-07-27T10:50:44.290Z,40.64
2022-07-27T10:53:03.522Z,40.78
2022-07-27T10:55:20.581Z,41.95
2022-07-27T10:57:37.602Z,39.86
2022-07-27T11:00:08.652Z,39.21
2022-07-27T11:02:30.749Z,40.14
2022-07-27T11:04:47.772Z,40.24
2022-07-27T11:07:23.964Z,41.57
2022-07-27T11:12:19.927Z,38.60
2022-07-27T11:14:37.303Z,37.87
2022-07-27T11:16:56.654Z,37.99
2022-07-27T11:19:18.464Z,38.11
2022-07-27T11:21:35.662Z,39.07
2022-07-27T11:23:52.696Z,39.27
2022-07-27T11:26:10.024Z,40.95
2022-07-27T11:28:27.392Z,40.54
2022-07-27T11:30:45.384Z,39.45
2022-07-27T11:33:02.542Z,39.40
2022-07-27T11:35:20.392Z,39.03
2022-07-27T11:37:37.931Z,38.88
2022-07-27T11:40:14.024Z,39.93
2022-07-27T11:42:38.041Z,39.37
2022-07-27T11:44:57.098Z,41.00
2022-07-27T11:47:15.364Z,40.43
2022-07-27T11:49:32.488Z,40.81
2022-07-27T11:51:49.848Z,40.73
2022-07-27T11:54:07.962Z,39.58
2022-07-27T11:56:26.161Z,38.63
2022-07-27T11:58:45.139Z,38.12
2022-07-27T12:01:03.224Z,37.59
2022-07-27T12:03:20.526Z,38.56
2022-07-27T12:05:38.690Z,37.48
2022-07-27T12:07:56.073Z,37.82
2022-07-27T12:10:13.132Z,37.68
2022-07-27T12:12:30.405Z,37.99
2022-07-27T12:14:47.688Z,37.18
2022-07-27T12:17:06.032Z,37.69
2022-07-27T12:19:24.161Z,37.25
2022-07-27T12:21:45.420Z,36.58
2022-07-27T12:24:05.481Z,35.58
2022-07-27T12:26:22.651Z,35.20
2022-07-27T12:28:41.029Z,35.79
2022-07-27T12:30:58.350Z,35.18
2022-07-27T12:33:15.358Z,34.24
2022-07-27T12:35:37.064Z,34.26
2022-07-27T12:37:55.491Z,34.61
2022-07-27T12:40:20.278Z,34.73
2022-07-27T12:42:37.496Z,35.83
2022-07-27T12:44:54.788Z,36.68
2022-07-27T12:47:12.225Z,35.29
2022-07-27T12:49:29.262Z,35.83
2022-07-27T12:51:46.717Z,34.46
2022-07-27T12:54:03.777Z,34.14
2022-07-27T12:56:27.401Z,33.85
2022-07-27T12:58:44.796Z,35.04
2022-07-27T13:01:02.164Z,36.62
2022-07-27T13:03:20.279Z,35.82
2022-07-27T13:05:37.528Z,36.10
2022-07-27T13:07:54.961Z,35.18
2022-07-27T13:10:13.040Z,35.90
2022-07-27T13:12:30.327Z,35.13
2022-07-27T13:14:47.313Z,34.85
2022-07-27T13:17:04.413Z,35.94
2022-07-27T13:19:22.490Z,35.13
2022-07-27T13:21:40.425Z,33.06
2022-07-27T13:23:57.679Z,35.30
2022-07-27T13:26:14.990Z,35.86
2022-07-27T13:28:32.065Z,34.95
2022-07-27T13:30:49.336Z,34.94
2022-07-27T13:33:06.629Z,35.90
2022-07-27T13:35:23.915Z,36.74
2022-07-27T13:37:40.970Z,37.06
2022-07-27T13:39:58.055Z,36.09
2022-07-27T13:42:15.232Z,36.43
2022-07-27T13:44:59.291Z,36.07
2022-07-27T13:47:10.603Z,35.32
2022-07-27T13:49:27.678Z,34.35
2022-07-27T13:51:46.333Z,35.38
2022-07-27T13:54:03.387Z,33.34
2022-07-27T13:56:23.432Z,34.20
2022-07-27T13:58:42.360Z,33.51
2022-07-27T14:01:02.787Z,33.87
2022-07-27T14:03:24.126Z,35.47
2022-07-27T14:05:49.487Z,34.84
2022-07-27T14:08:06.717Z,34.25
2022-07-27T14:10:24.037Z,32.92
2022-07-27T14:12:41.087Z,33.84
2022-07-27T14:14:58.134Z,34.40
2022-07-27T14:17:15.231Z,34.41
2022-07-27T14:19:32.165Z,33.71
2022-07-27T14:21:51.456Z,34.10
2022-07-27T14:24:08.739Z,33.28
2022-07-27T14:26:25.843Z,32.71
2022-07-27T14:28:42.872Z,33.90
2022-07-27T14:30:59.929Z,34.17
2022-07-27T14:33:17.164Z,33.10
2022-07-27T14:35:40.302Z,33.49
2022-07-27T14:37:58.074Z,33.15
2022-07-27T14:40:15.047Z,33.01
2022-07-27T14:42:32.030Z,34.05
2022-07-27T14:44:49.016Z,32.34
2022-07-27T14:47:07.426Z,31.86
2022-07-27T14:49:25.681Z,33.52
2022-07-27T14:51:43.046Z,34.10
2022-07-27T14:54:00.157Z,33.89
2022-07-27T14:56:18.087Z,31.60
2022-07-27T14:58:35.381Z,32.78
2022-07-27T15:00:52.502Z,32.83
2022-07-27T15:03:14.753Z,30.45
2022-07-27T15:05:32.243Z,32.61
2022-07-27T15:07:50.651Z,32.63
2022-07-27T15:10:07.919Z,32.87
2022-07-27T15:12:24.927Z,32.51
2022-07-27T15:14:41.968Z,33.32
2022-07-27T15:17:00.032Z,31.35
2022-07-27T15:19:17.381Z,33.99
2022-07-27T15:21:35.412Z,32.00
2022-07-27T15:23:52.426Z,33.21
2022-07-27T15:26:09.447Z,31.60
2022-07-27T15:28:26.482Z,33.12
2022-07-27T15:30:44.817Z,30.73
2022-07-27T15:33:01.763Z,31.50
2022-07-27T15:35:19.075Z,31.86
2022-07-27T15:37:36.363Z,32.62
2022-07-27T15:39:53.414Z,32.55
2022-07-27T15:42:11.093Z,32.87
2022-07-27T15:44:28.172Z,31.20
2022-07-27T15:46:45.488Z,31.63
2022-07-27T15:49:02.590Z,33.63
2022-07-27T15:51:19.698Z,33.32
2022-07-27T15:53:36.738Z,32.42
2022-07-27T15:55:53.985Z,31.92
2022-07-27T15:58:10.994Z,33.07
2022-07-27T16:00:28.802Z,32.18
2022-07-27T16:02:46.035Z,32.26
2022-07-27T16:05:03.705Z,32.19
2022-07-27T16:07:22.867Z,33.43
2022-07-27T16:09:39.889Z,34.09
2022-07-27T16:11:56.967Z,34.43
2022-07-27T16:14:15.017Z,33.75
2022-07-27T16:16:32.029Z,33.30
2022-07-27T16:18:49.506Z,33.84
2022-07-27T16:21:06.793Z,34.56
2022-07-27T16:23:24.056Z,33.34
2022-07-27T16:26:02.554Z,33.65
2022-07-27T16:28:18.945Z,33.03
2022-07-27T16:30:38.251Z,32.99
2022-07-27T16:32:55.707Z,34.38
2022-07-27T16:35:14.039Z,33.22
2022-07-27T16:37:32.349Z,33.83
2022-07-27T16:39:50.935Z,33.99
2022-07-27T16:42:08.231Z,33.38
2022-07-27T16:44:25.480Z,33.27
2022-07-27T16:46:42.667Z,33.87
2022-07-27T16:49:00.111Z,34.45
2022-07-27T16:51:18.120Z,34.90
2022-07-27T16:53:35.400Z,34.64
2022-07-27T16:55:53.634Z,33.69
2022-07-27T16:58:11.042Z,34.78
2022-07-27T17:00:28.106Z,34.77
2022-07-27T17:02:45.125Z,34.62
2022-07-27T17:05:02.178Z,34.63
2022-07-27T17:07:19.239Z,34.29
2022-07-27T17:09:38.289Z,35.62
2022-07-27T17:11:55.580Z,34.96
2022-07-27T17:14:12.720Z,34.87
2022-07-27T17:16:30.026Z,34.75
2022-07-27T17:18:47.358Z,34.81
2022-07-27T17:21:04.605Z,35.80
2022-07-27T17:23:21.872Z,34.00
2022-07-27T17:25:38.913Z,34.74
2022-07-27T17:27:56.189Z,37.23
2022-07-27T17:30:14.146Z,34.44
2022-07-27T17:32:31.205Z,36.29
2022-07-27T17:34:48.176Z,37.49
2022-07-27T17:37:05.248Z,35.89
2022-07-27T17:39:22.303Z,35.88
2022-07-27T17:41:39.274Z,37.27
2022-07-27T17:43:56.331Z,37.08
2022-07-27T17:46:14.391Z,35.81
2022-07-27T17:48:31.532Z,36.33
2022-07-27T17:50:48.802Z,35.86
2022-07-27T17:53:07.062Z,36.78
2022-07-27T17:55:26.411Z,36.38
2022-07-27T17:57:43.480Z,38.09
2022-07-27T18:00:00.819Z,38.94
2022-07-27T18:02:17.857Z,39.19
2022-07-27T18:04:39.222Z,38.52
2022-07-27T18:06:57.047Z,38.51
2022-07-27T18:09:14.792Z,38.39
2022-07-27T18:11:32.499Z,39.45
2022-07-27T18:13:49.520Z,38.60
2022-07-27T18:16:06.532Z,39.37
2022-07-27T18:18:24.600Z,39.80
2022-07-27T18:20:41.860Z,39.57
2022-07-27T18:22:59.870Z,40.26
2022-07-27T18:25:17.135Z,39.31
2022-07-27T18:27:34.153Z,39.45
2022-07-27T18:29:51.103Z,39.50
2022-07-27T18:32:08.435Z,41.00
2022-07-27T18:34:25.530Z,41.71
2022-07-27T18:36:42.591Z,42.35
2022-07-27T18:39:00.905Z,42.57
2022-07-27T18:41:17.912Z,42.10
2022-07-27T18:43:35.193Z,41.93
2022-07-27T18:45:52.192Z,43.73
2022-07-27T18:48:09.228Z,42.06
2022-07-27T18:50:26.266Z,43.70
2022-07-27T18:52:43.624Z,42.78
2022-07-27T18:55:00.669Z,44.65
2022-07-27T18:57:17.858Z,43.65
2022-07-27T18:59:36.976Z,43.77
2022-07-27T19:01:58.482Z,44.11
2022-07-27T19:04:15.894Z,43.56
2022-07-27T19:06:33.433Z,43.12
2022-07-27T19:08:52.570Z,43.88
2022-07-27T19:11:09.924Z,44.10
2022-07-27T19:13:27.004Z,42.91
2022-07-27T19:15:44.053Z,44.06
2022-07-27T19:18:01.050Z,44.03
2022-07-27T19:20:18.302Z,44.12
2022-07-27T19:22:35.283Z,43.61
2022-07-27T19:24:54.941Z,44.49
2022-07-27T19:27:12.196Z,44.77
2022-07-27T19:29:29.426Z,46.27
2022-07-27T19:31:46.661Z,46.56
2022-07-27T19:34:03.731Z,45.88
2022-07-27T19:36:20.685Z,45.36
2022-07-27T19:38:37.608Z,46.38
2022-07-27T19:40:54.908Z,46.83
2022-07-27T19:43:11.839Z,46.12
2022-07-27T19:45:28.878Z,46.57
2022-07-27T19:47:46.207Z,46.91
2022-07-27T19:50:04.428Z,47.12
2022-07-27T19:52:22.660Z,46.86
2022-07-27T19:54:39.687Z,47.63
2022-07-27T19:56:57.948Z,47.66
2022-07-27T19:59:15.328Z,47.46
2022-07-27T20:01:32.642Z,47.75
2022-07-27T20:03:53.929Z,48.36
2022-07-27T20:06:12.122Z,47.92
2022-07-27T20:08:29.613Z,47.88
2022-07-27T20:10:47.474Z,48.06
2022-07-27T20:13:05.552Z,49.45
2022-07-27T20:15:22.887Z,49.18
2022-07-27T20:17:40.586Z,49.75
2022-07-27T20:19:57.906Z,50.14
2022-07-27T20:22:14.939Z,50.06
2022-07-27T20:24:32.214Z,51.57
2022-07-27T20:26:49.476Z,49.29
2022-07-27T20:29:07.652Z,51.30
2022-07-27T20:31:24.673Z,49.73
2022-07-27T20:33:42.481Z,51.80
2022-07-27T20:35:59.625Z,50.86
2022-07-27T20:38:16.669Z,51.69
2022-07-27T20:40:33.745Z,51.28
2022-07-27T20:42:50.796Z,50.50
2022-07-27T20:45:07.840Z,50.74
2022-07-27T20:47:24.893Z,52.23
2022-07-27T20:49:42.191Z,52.39
2022-07-27T20:51:59.271Z,51.83
2022-07-27T20:54:16.232Z,52.92
2022-07-27T20:56:33.514Z,53.77
2022-07-27T20:58:50.454Z,52.36
2022-07-27T21:01:07.815Z,51.87
2022-07-27T21:03:25.160Z,52.56
2022-07-27T21:05:42.178Z,52.92
2022-07-27T21:07:59.209Z,51.94
2022-07-27T21:10:17.254Z,52.66
2022-07-27T21:12:34.543Z,53.39
2022-07-27T21:14:51.489Z,53.00
2022-07-27T21:17:08.448Z,54.38
2022-07-27T21:19:25.750Z,53.05
2022-07-27T21:21:42.741Z,53.05
2022-07-27T21:23:59.791Z,54.25
2022-07-27T21:26:18.465Z,53.69
2022-07-27T21:28:35.551Z,55.67
2022-07-27T21:30:53.540Z,55.41
2022-07-27T21:33:10.600Z,53.37
2022-07-27T21:35:27.587Z,54.95
2022-07-27T21:37:44.559Z,54.31
2022-07-27T21:40:02.045Z,54.72
2022-07-27T21:42:19.154Z,54.44
2022-07-27T21:44:36.198Z,54.03
2022-07-27T21:46:53.259Z,54.78
2022-07-27T21:49:10.285Z,53.89
2022-07-27T21:51:27.805Z,54.43
2022-07-27T21:53:45.263Z,54.59
2022-07-27T21:56:02.677Z,54.71
2022-07-27T21:58:19.785Z,54.49
2022-07-27T22:00:36.866Z,55.34
2022-07-27T22:02:53.914Z,56.08
2022-07-27T22:05:11.214Z,55.95
2022-07-27T22:07:28.253Z,55.45
2022-07-27T22:09:46.302Z,55.74
2022-07-27T22:12:03.561Z,55.83
2022-07-27T22:14:20.677Z,56.13
2022-07-27T22:16:37.787Z,56.87
2022-07-27T22:18:56.110Z,56.92
2022-07-27T22:21:13.441Z,57.21
2022-07-27T22:23:30.817Z,57.20
2022-07-27T22:25:47.857Z,57.16
2022-07-27T22:28:05.081Z,57.24
2022-07-27T22:30:22.178Z,56.80
2022-07-27T22:32:39.446Z,57.61
2022-07-27T22:34:57.792Z,57.63
2022-07-27T22:37:15.036Z,57.40
2022-07-27T22:39:32.325Z,57.19
2022-07-27T22:41:49.420Z,58.04
2022-07-27T22:44:06.444Z,57.58
2022-07-27T22:46:25.814Z,57.72
2022-07-27T22:48:43.185Z,57.22
2022-07-27T22:51:00.265Z,57.30
2022-07-27T22:53:17.237Z,57.15
2022-07-27T22:55:34.508Z,58.26
2022-07-27T22:57:51.815Z,58.29
2022-07-27T23:00:08.746Z,59.10
2022-07-27T23:02:25.990Z,58.59
2022-07-27T23:04:43.041Z,58.00
2022-07-27T23:07:00.024Z,59.11
2022-07-27T23:09:17.073Z,59.69
2022-07-27T23:11:34.062Z,59.65
2022-07-27T23:13:51.403Z,59.27
2022-07-27T23:16:08.523Z,60.28
2022-07-27T23:18:25.962Z,60.17
2022-07-27T23:20:43.222Z,60.15
2022-07-27T23:23:01.331Z,59.84
2022-07-27T23:25:20.020Z,60.49
2022-07-27T23:27:39.927Z,60.72
2022-07-27T23:29:57.575Z,60.88
2022-07-27T23:32:15.663Z,61.09
2022-07-27T23:34:32.743Z,60.27
2022-07-27T23:36:49.746Z,59.62
2022-07-27T23:39:07.047Z,59.96
2022-07-27T23:41:24.180Z,61.69
2022-07-27T23:43:41.236Z,60.90
2022-07-27T23:45:58.589Z,61.10
2022-07-27T23:48:15.567Z,60.80
2022-07-27T23:50:34.164Z,59.74
2022-07-27T23:52:51.250Z,60.31
2022-07-27T23:55:08.678Z,61.80
2022-07-27T23:57:26.651Z,62.20
2022-07-27T23:59:43.755Z,62.20
